Time;durP1;ratioP1;P1;durP2;ratioP2;P2;SDS_P1;SDS_P2;PMS_P1;PMS_P2;Temp;Humidity;BMP_temperature;BMP_pressure;BME280_temperature;BME280_humidity;BME280_pressure;Samples;Min_cycle;Max_cycle;Signal;HPM_P1;HPM_P2
2021/09/04 00:00:12;;;;;;;33.20;21.42;;;18.10;99.90;;;18.36;74.53;101884.34;5115210;28;20131;-70
2021/09/04 00:02:40;;;;;;;29.30;21.98;;;18.00;99.90;;;18.44;74.52;101883.31;5115639;28;20162;-70
2021/09/04 00:05:10;;;;;;;32.28;21.75;;;18.10;99.90;;;18.43;74.54;101880.66;5115201;28;20435;-70
2021/09/04 00:07:38;;;;;;;38.80;22.40;;;18.10;99.90;;;18.22;74.47;101849.78;5115362;28;20035;-70
2021/09/04 00:10:09;;;;;;;30.63;21.83;;;18.00;99.90;;;18.15;74.54;101880.31;5115474;28;20036;-70
2021/09/04 00:12:38;;;;;;;34.97;22.60;;;17.90;99.90;;;17.97;75.11;101860.09;5115319;28;20043;-70
2021/09/04 00:15:10;;;;;;;35.47;22.30;;;17.80;99.90;;;17.88;75.31;101844.22;5115102;28;20085;-70
2021/09/04 00:17:43;;;;;;;34.17;22.33;;;17.70;99.90;;;17.64;75.67;101833.97;5115445;28;20068;-70
2021/09/04 00:20:13;;;;;;;34.75;22.98;;;17.60;99.90;;;17.75;76.28;101866.75;5115507;28;20047;-70
2021/09/04 00:22:41;;;;;;;35.20;22.57;;;17.50;99.90;;;17.84;76.27;101863.94;5115250;28;20047;-70
2021/09/04 00:25:11;;;;;;;31.65;22.45;;;17.50;99.90;;;17.82;76.12;101878.25;5114877;28;20346;-70
2021/09/04 00:27:39;;;;;;;35.90;22.37;;;17.50;99.90;;;17.96;75.84;101863.69;5115180;28;20093;-70
2021/09/04 00:30:11;;;;;;;35.90;23.23;;;17.60;99.90;;;17.78;75.61;101863.16;5114972;28;20286;-69
2021/09/04 00:32:39;;;;;;;34.47;22.98;;;17.60;99.90;;;17.79;75.67;101851.53;5114791;28;20077;-70
2021/09/04 00:35:09;;;;;;;33.85;23.52;;;17.50;99.90;;;17.88;75.48;101864.75;5114486;28;20050;-70
2021/09/04 00:37:38;;;;;;;35.65;22.23;;;17.60;99.90;;;17.80;75.44;101850.63;5114847;28;20106;-70
2021/09/04 00:40:09;;;;;;;34.35;21.92;;;17.50;99.90;;;17.85;75.72;101865.69;5114280;28;20450;-70
2021/09/04 00:42:37;;;;;;;33.65;22.27;;;17.50;99.90;;;17.85;75.61;101871.03;5114514;28;20040;-69
2021/09/04 00:45:07;;;;;;;31.38;21.77;;;17.50;99.90;;;17.81;75.71;101861.28;5114468;28;20412;-70
2021/09/04 00:47:37;;;;;;;35.92;22.75;;;17.50;99.90;;;17.72;75.48;101841.84;5114581;28;20075;-69
2021/09/04 00:50:06;;;;;;;27.67;20.63;;;17.60;99.90;;;17.83;75.40;101861.25;5096488;28;20052;-70
2021/09/04 00:52:35;;;;;;;33.63;21.08;;;17.50;99.90;;;17.41;75.94;101828.09;5114359;28;20096;-70
2021/09/04 00:55:04;;;;;;;31.70;22.10;;;17.40;99.90;;;17.50;76.34;101835.97;5096366;28;20473;-70
2021/09/04 00:57:33;;;;;;;31.27;21.97;;;17.30;99.90;;;17.50;76.51;101835.97;5114584;28;20050;-70
2021/09/04 01:00:01;;;;;;;30.63;21.77;;;17.30;99.90;;;17.51;76.69;101850.25;5114433;28;20485;-70
2021/09/04 01:02:30;;;;;;;32.20;23.08;;;17.20;99.90;;;17.47;76.37;101838.69;5114079;28;20503;-70
2021/09/04 01:05:02;;;;;;;34.10;22.50;;;17.20;99.90;;;17.48;76.61;101852.97;5114490;28;20051;-70
2021/09/04 01:07:37;;;;;;;38.35;22.85;;;17.20;99.90;;;17.30;77.04;101831.84;5114157;28;20043;-70
2021/09/04 01:10:08;;;;;;;34.80;21.73;;;17.00;99.90;;;17.36;76.84;101845.13;5114262;28;20048;-70
2021/09/04 01:12:38;;;;;;;38.22;22.80;;;17.10;99.90;;;17.40;76.87;101845.03;5114275;28;20052;-70
2021/09/04 01:15:09;;;;;;;35.28;22.77;;;17.10;99.90;;;17.46;76.79;101841.41;5113930;28;20491;-70
2021/09/04 01:17:37;;;;;;;33.65;23.27;;;17.20;99.90;;;17.44;76.57;101846.75;5113925;28;20381;-70
2021/09/04 01:20:09;;;;;;;33.80;22.10;;;17.10;99.90;;;17.51;76.36;101844.91;5114169;28;20063;-70
2021/09/04 01:22:38;;;;;;;34.30;22.52;;;17.20;99.90;;;17.46;76.23;101842.25;5113758;28;20043;-70
2021/09/04 01:25:09;;;;;;;36.28;22.92;;;17.20;99.90;;;17.29;76.31;101841.66;5113777;28;20501;-70
2021/09/04 01:27:40;;;;;;;36.65;22.33;;;17.10;99.90;;;17.34;76.53;101839.81;5113744;28;20097;-70
2021/09/04 01:30:10;;;;;;;35.38;21.52;;;17.00;99.90;;;17.34;76.27;101829.13;5113956;28;20040;-70
2021/09/04 01:32:38;;;;;;;33.50;21.90;;;17.10;99.90;;;17.48;76.17;101834.25;5113896;28;20044;-70
2021/09/04 01:35:10;;;;;;;29.45;21.00;;;17.10;99.90;;;17.41;76.31;101835.22;5113959;28;20134;-69
2021/09/04 01:37:39;;;;;;;34.40;21.92;;;17.10;99.90;;;17.44;76.18;101835.19;5113596;28;20079;-70
2021/09/04 01:40:11;;;;;;;39.03;21.40;;;17.10;99.90;;;17.43;75.95;101836.97;5113401;28;20067;-70
2021/09/04 01:42:42;;;;;;;31.63;20.70;;;17.10;99.90;;;17.41;76.14;101833.44;5113078;28;20050;-71
2021/09/04 01:45:12;;;;;;;33.00;21.35;;;17.10;99.90;;;17.37;76.10;101833.50;5113381;28;20039;-72
2021/09/04 01:47:41;;;;;;;33.13;20.27;;;17.10;99.90;;;17.42;76.07;101837.00;5112664;28;20067;-71
2021/09/04 01:50:13;;;;;;;33.00;20.33;;;17.10;99.90;;;17.30;76.06;101831.84;5112991;28;20484;-72
2021/09/04 01:52:43;;;;;;;30.38;18.85;;;17.00;99.90;;;17.31;76.09;101826.47;5112028;28;20108;-71
2021/09/04 01:55:16;;;;;;;31.15;20.65;;;17.00;99.90;;;17.30;76.17;101831.84;5112730;28;20047;-70
2021/09/04 01:57:45;;;;;;;30.83;20.13;;;17.00;99.90;;;17.19;76.13;101833.84;5112691;28;20486;-71
2021/09/04 02:00:16;;;;;;;30.38;20.55;;;17.00;99.90;;;17.22;76.68;101828.41;5112570;28;20449;-69
2021/09/04 02:02:44;;;;;;;;;;;16.90;99.90;;;17.17;76.51;101825.81;5112964;28;20043;-71
2021/09/04 02:05:13;;;;;;;31.58;19.50;;;17.00;99.90;;;17.22;76.42;101831.09;5112912;28;20382;-69
2021/09/04 02:07:42;;;;;;;35.13;20.25;;;16.90;99.90;;;17.25;76.43;101825.72;5112523;28;20047;-70
2021/09/04 02:10:11;;;;;;;30.67;19.63;;;16.90;99.90;;;17.27;76.39;101823.88;5112448;28;20039;-70
2021/09/04 02:12:40;;;;;;;30.20;20.13;;;17.00;99.90;;;17.22;76.21;101828.41;5112639;28;20048;-70
2021/09/04 02:15:10;;;;;;;32.70;20.23;;;16.90;99.90;;;17.20;76.15;101816.88;5094269;28;20051;-69
2021/09/04 02:17:39;;;;;;;31.08;19.73;;;16.90;99.90;;;16.97;76.52;101794.06;5112555;28;20056;-70
2021/09/04 02:20:09;;;;;;;29.73;20.30;;;16.80;99.90;;;17.08;76.46;101817.94;5112630;28;20036;-70
2021/09/04 02:22:38;;;;;;;36.00;20.55;;;16.80;99.90;;;17.08;76.68;101820.63;5112250;28;20420;-69
2021/09/04 02:25:09;;;;;;;32.83;20.42;;;16.80;99.90;;;17.07;76.72;101813.53;5112263;28;20050;-70
2021/09/04 02:27:38;;;;;;;31.23;20.73;;;16.80;99.90;;;17.07;76.66;101817.06;5094325;28;20047;-70
2021/09/04 02:30:11;;;;;;;40.50;21.10;;;16.80;99.90;;;17.02;76.76;101818.03;5112790;28;20051;-71
2021/09/04 02:32:40;;;;;;;32.72;20.70;;;16.70;99.90;;;17.01;76.89;101809.13;5112498;28;20585;-70
2021/09/04 02:35:10;;;;;;;33.45;20.90;;;16.80;99.90;;;17.07;76.80;101814.38;5094049;28;20594;-70
2021/09/04 02:37:38;;;;;;;33.60;21.42;;;16.80;99.90;;;16.87;77.15;101799.56;5112242;28;20105;-71
2021/09/04 02:40:09;;;;;;;30.95;20.13;;;16.60;99.90;;;16.85;77.46;101810.28;5112409;28;20060;-70
2021/09/04 02:42:38;;;;;;;29.98;19.55;;;16.60;99.90;;;16.93;77.19;101803.03;5112390;28;20055;-71
2021/09/04 02:45:11;;;;;;;33.88;20.02;;;16.60;99.90;;;16.94;77.19;101812.81;5112375;28;20047;-70
2021/09/04 02:47:40;;;;;;;31.35;21.10;;;16.60;99.90;;;16.79;77.02;101796.13;5112473;28;20067;-70
2021/09/04 02:50:10;;;;;;;31.48;20.55;;;16.60;99.90;;;16.86;77.21;101800.50;5112102;28;20426;-70
2021/09/04 02:52:38;;;;;;;38.15;21.40;;;16.70;99.90;;;16.84;77.23;101795.16;5112168;28;20470;-70
2021/09/04 02:55:08;;;;;;;30.08;20.52;;;16.60;99.90;;;16.95;76.91;101811.03;5112380;28;20481;-70
2021/09/04 02:57:37;;;;;;;33.30;20.98;;;16.70;99.90;;;16.96;77.08;101808.34;5112357;28;20086;-70
2021/09/04 03:00:10;;;;;;;30.50;20.15;;;16.70;99.90;;;16.38;77.06;101705.88;5112375;28;20036;-70
2021/09/04 03:02:38;;;;;;;30.98;20.23;;;16.60;99.90;;;16.92;77.00;101803.03;5112972;28;20385;-69
2021/09/04 03:05:08;;;;;;;34.60;19.88;;;16.60;99.90;;;16.91;77.05;101804.84;5097772;28;20113;-70
2021/09/04 03:07:37;;;;;;;33.15;20.90;;;16.60;99.90;;;16.95;77.24;101806.59;5115906;28;20614;-70
2021/09/04 03:10:08;;;;;;;31.38;21.13;;;16.60;99.90;;;16.84;77.50;101807.66;5116093;28;20130;-69
2021/09/04 03:12:37;;;;;;;33.50;20.52;;;16.60;99.90;;;16.81;77.35;101795.22;5116169;28;20419;-69
2021/09/04 03:15:06;;;;;;;37.40;21.55;;;16.50;99.90;;;16.87;77.41;101803.13;5116042;28;20061;-69
2021/09/04 03:17:37;;;;;;;33.63;21.00;;;16.50;99.90;;;16.76;77.62;101799.72;5115931;28;20050;-69
2021/09/04 03:20:08;;;;;;;30.27;20.77;;;16.50;99.90;;;16.66;78.02;101795.44;5116070;28;20130;-70
2021/09/04 03:22:37;;;;;;;37.38;21.45;;;16.40;99.90;;;16.46;78.07;101762.75;5097724;28;20265;-70
2021/09/04 03:25:08;;;;;;;32.78;20.52;;;16.40;99.90;;;16.58;78.19;101796.44;5116252;28;20052;-70
2021/09/04 03:27:36;;;;;;;34.33;21.20;;;16.40;99.90;;;16.43;78.54;101778.81;5115871;28;20401;-70
2021/09/04 03:30:08;;;;;;;32.55;21.40;;;16.30;99.90;;;16.03;78.50;101700.16;5115692;28;20117;-70
2021/09/04 03:32:39;;;;;;;34.95;20.83;;;16.30;99.90;;;16.46;78.37;101796.56;5115360;28;20072;-70
2021/09/04 03:35:09;;;;;;;33.57;21.73;;;16.30;99.90;;;16.54;79.07;101794.72;5115284;28;20063;-70
2021/09/04 03:37:37;;;;;;;31.87;21.73;;;16.20;99.90;;;16.53;78.88;101787.63;5115395;28;20061;-69
2021/09/04 03:40:08;;;;;;;33.78;20.92;;;16.30;99.90;;;16.53;78.90;101791.16;5115525;28;20056;-69
2021/09/04 03:42:37;;;;;;;34.60;21.90;;;16.20;99.90;;;16.60;78.66;101799.97;5115496;28;20078;-70
2021/09/04 03:45:08;;;;;;;38.13;22.10;;;16.30;99.90;;;16.46;78.50;101792.13;5115661;28;20059;-70
2021/09/04 03:47:39;;;;;;;36.78;21.67;;;16.30;99.90;;;16.45;78.72;101776.13;5115429;28;20289;-69
2021/09/04 03:50:09;;;;;;;35.47;22.67;;;16.30;99.90;;;16.63;78.52;101806.16;5115081;28;20056;-70
2021/09/04 03:52:37;;;;;;;37.03;23.30;;;16.40;99.90;;;16.57;78.53;101797.38;5115260;28;20067;-70
2021/09/04 03:55:08;;;;;;;36.00;22.98;;;16.40;99.90;;;16.62;78.54;101799.06;5115194;28;20412;-70
2021/09/04 03:57:37;;;;;;;34.53;22.20;;;16.40;99.90;;;16.66;78.48;101799.91;5114888;28;20066;-69
2021/09/04 04:00:08;;;;;;;35.83;22.92;;;16.40;99.90;;;16.50;78.33;101788.53;5114847;28;20040;-70
2021/09/04 04:02:40;;;;;;;34.67;21.90;;;16.40;99.90;;;16.67;78.27;101801.66;5114742;28;20044;-70
2021/09/04 04:05:13;;;;;;;34.15;22.48;;;16.40;99.90;;;16.68;78.37;101812.34;5114603;28;20067;-70
2021/09/04 04:07:42;;;;;;;35.15;23.13;;;16.40;99.90;;;16.64;78.60;101812.38;5114578;28;20459;-70
2021/09/04 04:10:11;;;;;;;41.13;25.50;;;16.40;99.90;;;16.14;79.14;101776.50;5114816;28;20070;-70
2021/09/04 04:12:41;;;;;;;42.05;24.73;;;16.20;99.90;;;16.45;79.39;101802.84;5114768;28;20174;-70
2021/09/04 04:15:12;;;;;;;41.67;25.52;;;16.10;99.90;;;16.34;79.65;101810.97;5113879;28;20047;-70
2021/09/04 04:17:43;;;;;;;43.42;25.77;;;16.10;99.90;;;16.42;79.92;101813.53;5114468;28;20524;-70
2021/09/04 04:20:13;;;;;;;40.70;24.88;;;16.10;99.90;;;16.42;79.95;101813.53;5114600;28;20558;-70
2021/09/04 04:22:42;;;;;;;44.03;24.67;;;16.20;99.90;;;16.33;79.91;101817.22;5114625;28;20417;-70
2021/09/04 04:25:12;;;;;;;42.53;25.80;;;16.10;99.90;;;16.01;80.85;101800.69;5114520;28;20039;-70
2021/09/04 04:27:41;;;;;;;36.30;25.30;;;15.90;99.90;;;15.93;81.45;101767.91;5114779;28;20055;-70
2021/09/04 04:30:12;;;;;;;40.58;26.30;;;15.90;99.90;;;15.96;81.43;101805.22;5096168;28;20059;-70
2021/09/04 04:32:40;;;;;;;40.78;24.80;;;15.80;99.90;;;16.07;81.76;101806.88;5114163;28;20047;-70
2021/09/04 04:35:11;;;;;;;40.28;25.58;;;15.80;99.90;;;16.19;81.85;101814.72;5113961;28;20043;-70
2021/09/04 04:37:40;;;;;;;43.75;27.25;;;15.90;99.90;;;16.05;81.70;101791.75;5095770;28;20489;-70
2021/09/04 04:40:10;;;;;;;38.25;25.77;;;15.90;99.90;;;16.03;82.59;101813.13;5114232;28;20038;-70
2021/09/04 04:42:39;;;;;;;40.35;26.55;;;15.80;99.90;;;16.21;82.28;101817.38;5114063;28;20438;-70
2021/09/04 04:45:09;;;;;;;41.88;27.17;;;15.90;99.90;;;16.21;82.21;101801.34;5114127;28;20031;-70
2021/09/04 04:47:37;;;;;;;42.42;26.25;;;16.00;99.90;;;16.38;81.87;101811.81;5113774;28;20051;-70
2021/09/04 04:50:08;;;;;;;34.78;24.90;;;16.10;99.90;;;16.44;81.59;101814.41;5113945;28;20074;-70
2021/09/04 04:52:39;;;;;;;40.65;26.50;;;16.20;99.90;;;16.42;81.54;101809.09;5113703;28;20075;-69
2021/09/04 04:55:09;;;;;;;;;;;16.20;99.90;;;16.52;81.43;101823.22;5114435;28;20048;-70
2021/09/04 04:57:39;;;;;;;50.13;27.05;;;16.30;99.90;;;16.51;81.37;101819.66;5113930;28;19969;-71
2021/09/04 05:00:10;;;;;;;43.57;26.50;;;16.30;99.90;;;16.58;81.47;101826.72;5113744;28;20458;-70
2021/09/04 05:02:39;;;;;;;38.63;27.27;;;16.30;99.90;;;16.58;81.20;101816.03;5095399;28;20293;-70
2021/09/04 05:05:09;;;;;;;41.33;27.67;;;16.30;99.90;;;16.35;81.98;101820.78;5113884;28;20040;-70
2021/09/04 05:07:40;;;;;;;40.60;25.83;;;16.20;99.90;;;16.46;82.18;101823.28;5113697;28;20132;-70
2021/09/04 05:10:10;;;;;;;43.40;27.73;;;16.20;99.90;;;16.47;82.12;101830.41;5113605;28;20451;-70
2021/09/04 05:12:40;;;;;;;47.50;29.25;;;16.20;99.90;;;16.47;82.19;101825.06;5113501;28;20134;-70
2021/09/04 05:15:10;;;;;;;49.80;27.23;;;16.20;99.90;;;16.52;82.16;101829.47;5113578;28;20059;-70
2021/09/04 05:17:40;;;;;;;44.17;27.70;;;16.20;99.90;;;16.37;82.21;101807.38;5113477;28;20078;-71
2021/09/04 05:20:12;;;;;;;46.13;28.13;;;16.30;99.90;;;16.51;82.27;101833.03;5113549;28;20048;-70
2021/09/04 05:22:45;;;;;;;41.50;28.33;;;16.20;99.90;;;16.63;82.15;101835.53;5113165;28;20056;-71
2021/09/04 05:25:16;;;;;;;47.35;29.55;;;16.30;99.90;;;16.66;81.95;101834.63;5113183;28;20051;-70
2021/09/04 05:27:45;;;;;;;45.15;28.17;;;16.40;99.90;;;16.69;81.70;101837.25;5113006;28;20047;-70
2021/09/04 05:30:14;;;;;;;44.17;26.67;;;16.40;99.90;;;16.66;81.57;101837.31;5112990;28;20484;-70
2021/09/04 05:32:43;;;;;;;39.55;26.88;;;16.40;99.90;;;16.65;81.49;101835.50;5113217;28;20055;-70
2021/09/04 05:35:11;;;;;;;42.15;27.48;;;16.40;99.90;;;16.52;81.89;101829.47;5113302;28;20156;-69
2021/09/04 05:37:42;;;;;;;42.88;28.40;;;16.30;99.90;;;16.03;81.87;101733.06;5112825;28;20521;-70
2021/09/04 05:40:12;;;;;;;;;;;16.30;99.90;;;16.18;82.66;101807.59;5095297;28;20075;-70
2021/09/04 05:42:41;;;;;;;43.33;29.30;;;16.20;99.90;;;16.48;82.76;101827.75;5112774;28;20000;-70
2021/09/04 05:45:11;;;;;;;45.00;29.65;;;16.20;99.90;;;16.47;82.59;101827.72;5112655;28;20515;-71
2021/09/04 05:47:40;;;;;;;48.00;29.10;;;16.20;99.90;;;16.47;82.96;101825.97;5094863;28;20549;-70
2021/09/04 05:50:09;;;;;;;43.78;28.77;;;16.20;99.90;;;16.49;82.95;101823.28;5112720;28;20139;-71
2021/09/04 05:52:38;;;;;;;46.85;29.48;;;16.20;99.90;;;16.30;83.27;101819.06;5112738;28;20055;-71
2021/09/04 05:55:07;;;;;;;46.80;29.00;;;16.10;99.90;;;14.40;83.57;101510.16;5112710;28;20123;-70
2021/09/04 05:57:38;;;;;;;43.40;28.85;;;16.00;99.90;;;16.33;83.80;101805.66;5094700;28;20050;-71
2021/09/04 06:00:08;;;;;;;43.45;28.45;;;16.10;99.90;;;16.40;83.60;101821.56;5113016;28;20461;-71
2021/09/04 06:02:40;;;;;;;46.83;29.58;;;16.20;99.90;;;16.18;83.78;101814.75;5094729;28;20117;-70
2021/09/04 06:05:10;;;;;;;49.50;29.05;;;16.00;99.90;;;16.28;83.69;101827.06;5112965;28;20441;-71
2021/09/04 06:07:38;;;;;;;51.55;28.00;;;16.00;99.90;;;16.40;83.87;101828.69;5113247;28;20076;-70
2021/09/04 06:10:08;;;;;;;47.83;29.58;;;16.10;99.90;;;16.45;83.48;101829.53;5112615;28;20035;-71
2021/09/04 06:12:38;;;;;;;45.10;28.90;;;16.20;99.90;;;16.44;83.32;101834.00;5112654;28;20043;-71
2021/09/04 06:15:08;;;;;;;47.93;29.43;;;16.20;99.90;;;16.60;83.18;101832.03;5112432;28;20092;-70
2021/09/04 06:17:37;;;;;;;46.05;29.50;;;16.30;99.90;;;16.66;82.75;101832.84;5113266;28;20062;-71
2021/09/04 06:20:07;;;;;;;42.70;28.20;;;16.40;99.90;;;16.73;82.71;101838.97;5113095;28;20040;-70
2021/09/04 06:22:36;;;;;;;43.97;28.95;;;16.40;99.90;;;16.65;82.53;101844.41;5112850;28;20039;-70
2021/09/04 06:25:06;;;;;;;42.72;27.90;;;16.40;99.90;;;16.15;83.41;101825.47;5112555;28;20048;-71
2021/09/04 06:27:38;;;;;;;45.17;28.55;;;16.20;99.90;;;16.46;83.65;101850.00;5112756;28;20127;-71
2021/09/04 06:30:08;;;;;;;41.15;27.35;;;16.20;99.90;;;16.49;83.38;101842.84;5112448;28;20446;-71
2021/09/04 06:32:36;;;;;;;;;;;16.20;99.90;;;16.60;82.99;101843.63;5112864;28;20546;-70
2021/09/04 06:35:06;;;;;;;43.88;27.27;;;16.30;99.90;;;16.58;82.64;101844.53;5112762;28;20034;-70
2021/09/04 06:37:35;;;;;;;;;;;16.30;99.90;;;16.68;82.31;101855.09;5113791;28;20064;-70
2021/09/04 06:40:05;;;;;;;39.08;26.25;;;16.40;99.90;;;16.40;82.33;101821.56;5116751;28;20003;-71
2021/09/04 06:42:34;;;;;;;44.37;28.00;;;16.30;99.90;;;16.61;82.33;101840.03;5117304;28;20051;-70
2021/09/04 06:45:04;;;;;;;39.28;25.98;;;16.30;99.90;;;16.70;82.11;101850.59;5116575;28;20039;-70
2021/09/04 06:47:34;;;;;;;44.97;27.45;;;16.40;99.90;;;16.74;82.03;101851.44;5116636;28;20048;-71
2021/09/04 06:50:03;;;;;;;46.38;26.98;;;16.40;99.90;;;15.77;81.68;101663.16;5116337;28;20032;-72
2021/09/04 06:52:33;;;;;;;42.30;26.88;;;16.50;99.90;;;16.90;81.49;101860.97;5116555;28;20047;-71
2021/09/04 06:55:02;;;;;;;40.47;28.02;;;16.60;99.90;;;16.98;81.31;101854.63;5116766;28;20092;-71
2021/09/04 06:57:30;;;;;;;42.08;27.60;;;16.60;99.90;;;17.06;80.93;101860.75;5116258;28;20048;-71
2021/09/04 06:59:58;;;;;;;38.70;27.63;;;16.70;99.90;;;16.99;80.63;101848.38;5115933;28;20131;-71
2021/09/04 07:02:35;;;;;;;39.47;26.50;;;16.80;99.90;;;17.04;80.67;101859.88;5116049;28;20090;-72
2021/09/04 07:05:05;;;;;;;41.15;25.92;;;16.80;99.90;;;17.03;80.50;101855.44;5116318;28;20113;-71
2021/09/04 07:07:33;;;;;;;37.70;25.50;;;16.80;99.90;;;16.86;81.08;101852.13;5116041;28;20472;-71
2021/09/04 07:10:02;;;;;;;34.30;23.88;;;16.60;99.90;;;16.97;81.01;101854.66;5115801;28;20094;-71
2021/09/04 07:12:31;;;;;;;35.10;24.90;;;16.60;99.90;;;16.83;80.67;101852.19;5115614;28;20126;-72
2021/09/04 07:14:59;;;;;;;36.20;24.10;;;16.60;99.90;;;16.83;81.08;101857.53;5115832;28;20470;-71
2021/09/04 07:17:27;;;;;;;38.28;23.58;;;16.60;99.90;;;16.85;80.83;101850.38;5116172;28;20307;-71
2021/09/04 07:19:57;;;;;;;35.03;25.63;;;16.60;99.90;;;16.91;80.65;101863.66;5115744;28;20043;-71
2021/09/04 07:22:25;;;;;;;38.47;25.53;;;16.60;99.90;;;16.93;80.69;101869.88;5097400;28;20047;-71
2021/09/04 07:24:54;;;;;;;34.45;24.65;;;16.60;99.90;;;16.83;80.67;101830.81;5115789;28;20039;-71
2021/09/04 07:27:22;;;;;;;35.97;24.08;;;16.70;99.90;;;17.12;80.43;101866.00;5115377;28;20067;-71
2021/09/04 07:29:51;;;;;;;35.58;24.08;;;16.80;99.90;;;17.12;80.30;101866.00;5097241;28;20059;-71
2021/09/04 07:32:19;;;;;;;36.28;24.20;;;16.80;99.90;;;17.23;79.96;101868.50;5115355;28;20093;-71
2021/09/04 07:34:47;;;;;;;33.97;23.60;;;16.90;99.90;;;17.19;79.55;101857.91;5115232;28;20071;-71
2021/09/04 07:37:17;;;;;;;35.00;23.20;;;17.00;99.90;;;16.98;79.33;101822.56;5115294;28;20051;-71
2021/09/04 07:39:45;;;;;;;34.63;23.75;;;17.00;99.90;;;17.27;78.98;101869.34;5115158;28;20044;-71
2021/09/04 07:42:14;;;;;;;35.95;24.10;;;17.00;99.90;;;17.31;78.94;101863.03;5115189;28;20126;-72
2021/09/04 07:44:42;;;;;;;36.13;24.50;;;17.00;99.90;;;17.36;78.44;101864.75;5096801;28;20062;-71
2021/09/04 07:47:10;;;;;;;35.88;24.38;;;17.10;99.90;;;17.36;78.17;101870.09;5114977;28;20036;-71
2021/09/04 07:49:39;;;;;;;34.65;23.77;;;17.10;99.90;;;17.39;77.74;101861.13;5114376;28;20044;-72
2021/09/04 07:52:07;;;;;;;31.50;22.80;;;17.10;99.90;;;17.43;77.58;101865.50;5115317;28;20043;-71
2021/09/04 07:54:37;;;;;;;34.70;24.77;;;17.20;99.90;;;17.42;77.89;101869.97;5114886;28;20043;-71
2021/09/04 07:57:05;;;;;;;35.55;23.08;;;17.20;99.90;;;17.47;77.63;101872.56;5115004;28;20162;-71
2021/09/04 07:59:34;;;;;;;36.15;23.58;;;17.20;99.90;;;17.49;77.42;101876.16;5114712;28;20054;-71
2021/09/04 08:02:03;;;;;;;34.17;22.73;;;17.20;99.90;;;17.59;77.28;101875.97;5114946;28;20043;-71
2021/09/04 08:04:32;;;;;;;36.75;24.25;;;17.30;99.90;;;17.62;76.82;101865.22;5114585;28;20047;-71
2021/09/04 08:07:00;;;;;;;35.22;23.33;;;17.40;99.90;;;17.21;77.03;101840.91;5114844;28;20036;-71
2021/09/04 08:09:28;;;;;;;30.83;21.98;;;17.20;99.90;;;16.91;79.50;101868.13;5114472;28;20047;-71
2021/09/04 08:11:58;;;;;;;35.28;22.75;;;16.80;99.90;;;16.66;80.55;101859.56;5114531;28;20086;-71
2021/09/04 08:14:27;;;;;;;32.42;23.50;;;16.40;99.90;;;16.62;80.89;101863.19;5114831;28;20069;-71
2021/09/04 08:16:55;;;;;;;32.25;23.30;;;16.40;99.90;;;16.75;80.54;101866.56;5114376;28;20469;-71
2021/09/04 08:19:24;;;;;;;35.17;23.38;;;16.50;99.90;;;16.68;80.67;101876.47;5114502;28;20090;-71
2021/09/04 08:21:52;;;;;;;34.30;23.08;;;16.40;99.90;;;16.79;80.16;101877.19;5114401;28;20128;-71
2021/09/04 08:24:20;;;;;;;31.85;22.98;;;16.50;99.90;;;16.78;79.69;101863.84;5114512;28;20374;-71
2021/09/04 08:26:49;;;;;;;36.13;23.85;;;16.60;99.90;;;17.00;80.00;101866.19;5114374;28;20127;-72
2021/09/04 08:29:19;;;;;;;34.35;23.35;;;16.70;99.90;;;17.23;79.49;101871.19;5114220;28;20092;-71
2021/09/04 08:31:47;;;;;;;32.10;21.38;;;16.90;99.90;;;17.40;78.59;101870.94;5114415;28;20397;-71
2021/09/04 08:34:16;;;;;;;34.03;22.25;;;17.10;99.90;;;17.44;77.91;101869.97;5114291;28;20086;-71
2021/09/04 08:36:44;;;;;;;31.42;22.27;;;17.10;99.90;;;17.42;77.67;101874.47;5113957;28;20043;-71
2021/09/04 08:39:13;;;;;;;33.17;22.33;;;17.20;99.90;;;16.73;79.66;101874.59;5114088;28;20432;-71
2021/09/04 08:41:42;;;;;;;34.30;23.40;;;16.70;99.90;;;17.17;79.28;101865.06;5095655;28;20443;-71
2021/09/04 08:44:10;;;;;;;32.25;23.05;;;16.90;99.90;;;17.33;77.99;101871.91;5113952;28;20044;-71
2021/09/04 08:46:40;;;;;;;31.98;21.45;;;17.00;99.90;;;17.37;77.69;101870.97;5114085;28;20047;-71
2021/09/04 08:49:09;;;;;;;29.98;21.23;;;17.10;99.90;;;17.48;77.57;101877.03;5114510;28;20047;-71
2021/09/04 08:51:37;;;;;;;25.77;20.88;;;17.20;99.90;;;17.51;77.07;101874.34;5113659;28;20040;-71
2021/09/04 08:54:06;;;;;;;30.33;21.05;;;17.30;99.90;;;17.67;77.03;101878.53;5113859;28;20093;-70
2021/09/04 08:56:35;;;;;;;30.80;21.25;;;17.40;99.90;;;17.75;76.78;101882.81;5113714;28;20453;-70
2021/09/04 08:59:03;;;;;;;30.33;21.40;;;17.50;99.90;;;17.70;76.31;101868.66;5113948;28;20043;-70
2021/09/04 09:01:31;;;;;;;34.38;21.75;;;17.50;99.90;;;17.72;75.74;101882.00;5113533;28;20066;-70
2021/09/04 09:04:06;;;;;;;34.38;21.58;;;17.50;99.90;;;17.64;76.13;101870.53;5113389;28;20046;-70
2021/09/04 09:06:37;;;;;;;28.95;21.05;;;17.50;99.90;;;17.73;75.82;101871.25;5113908;28;20040;-70
2021/09/04 09:09:17;;;;;;;30.75;20.52;;;17.50;99.90;;;17.95;75.72;101875.31;5113516;28;20048;-70
2021/09/04 09:11:47;;;;;;;30.53;21.13;;;17.70;99.90;;;17.98;75.51;101888.63;5113507;28;20039;-71
2021/09/04 09:14:15;;;;;;;30.80;20.98;;;17.70;99.90;;;18.06;75.44;101888.50;5113753;28;20289;-71
2021/09/04 09:16:54;;;;;;;26.42;18.60;;;17.80;99.90;;;18.22;75.20;101886.41;5113741;28;20059;-70
2021/09/04 09:19:28;;;;;;;28.80;20.10;;;17.90;99.90;;;18.18;74.64;101887.38;5113743;28;20512;-70
2021/09/04 09:21:57;;;;;;;26.55;19.77;;;17.90;99.90;;;18.25;74.60;101881.91;5113628;28;20058;-71
2021/09/04 09:24:27;;;;;;;28.20;20.63;;;18.00;99.90;;;18.37;74.22;101881.63;5113290;28;20118;-71
2021/09/04 09:26:58;;;;;;;31.85;19.35;;;18.10;99.90;;;18.07;73.92;101866.16;5113795;28;20044;-70
2021/09/04 09:29:30;;;;;;;;;;;18.00;99.90;;;17.37;75.19;101775.56;5114538;28;20051;-70
2021/09/04 09:32:05;;;;;;;26.20;19.23;;;17.70;99.90;;;18.13;75.15;101866.06;5113518;28;19926;-70
2021/09/04 09:34:37;;;;;;;40.83;19.25;;;17.80;99.90;;;18.13;74.55;101854.44;5113408;28;20052;-70
2021/09/04 09:37:07;;;;;;;27.42;19.75;;;17.90;99.90;;;18.28;74.51;101871.09;5112876;28;20082;-70
2021/09/04 09:39:37;;;;;;;;;;;18.00;99.90;;;18.26;73.67;101870.25;5113835;28;20048;-71
2021/09/04 09:42:08;;;;;;;27.42;19.58;;;18.00;99.90;;;18.46;73.95;101878.81;5095327;28;19923;-70
2021/09/04 09:44:38;;;;;;;26.10;18.55;;;18.10;99.90;;;18.57;73.09;101867.84;5113639;28;20077;-70
2021/09/04 09:47:08;;;;;;;24.92;18.08;;;18.30;99.90;;;18.52;72.77;101867.09;5095278;28;20079;-70
2021/09/04 09:49:41;;;;;;;27.73;19.63;;;18.30;99.90;;;18.29;73.27;101877.34;5113421;28;20067;-71
2021/09/04 09:52:13;;;;;;;26.50;18.42;;;18.20;99.90;;;18.48;73.56;101876.09;5113251;28;20285;-71
2021/09/04 09:54:45;;;;;;;31.23;19.75;;;18.20;99.90;;;18.38;72.81;101845.91;5113427;28;20055;-71
2021/09/04 09:57:14;;;;;;;30.95;19.08;;;18.30;99.90;;;18.64;72.29;101866.84;5113605;28;20126;-71
2021/09/04 09:59:45;;;;;;;29.55;18.65;;;18.40;99.90;;;18.91;72.11;101874.25;5095194;28;20471;-70
2021/09/04 10:02:14;;;;;;;;;;;18.60;99.90;;;19.09;71.55;101846.09;5095576;28;20085;-70
2021/09/04 10:04:50;;;;;;;26.17;17.87;;;18.90;99.90;;;19.39;70.35;101869.56;5113812;28;19924;-71
2021/09/04 10:07:19;;;;;;;27.88;18.85;;;19.10;99.90;;;18.90;71.11;101873.38;5113398;28;20096;-70
2021/09/04 10:09:48;;;;;;;24.95;18.80;;;18.80;99.90;;;19.31;71.05;101877.78;5113326;28;20062;-71
2021/09/04 10:12:17;;;;;;;24.85;18.35;;;19.00;99.90;;;19.17;69.81;101807.47;5112446;28;20097;-71